sensor_id;sensor_type;location;lat;lon;timestamp;P1;durP1;ratioP1;P2;durP2;ratioP2
39998;SDS011;25696;42.646;23.368;2023-07-24T07:42:30;51.30;;;33.28;;
39998;SDS011;25696;42.646;23.368;2023-07-24T07:44:55;14.75;;;9.27;;
39998;SDS011;25696;42.646;23.368;2023-07-24T07:47:23;16.73;;;9.25;;
39998;SDS011;25696;42.646;23.368;2023-07-24T07:49:48;13.63;;;9.40;;
39998;SDS011;25696;42.646;23.368;2023-07-24T07:52:14;20.60;;;9.52;;
39998;SDS011;25696;42.646;23.368;2023-07-24T07:54:45;19.88;;;8.95;;
39998;SDS011;25696;42.646;23.368;2023-07-24T07:57:11;12.68;;;9.07;;
39998;SDS011;25696;42.646;23.368;2023-07-24T07:59:37;13.90;;;8.60;;
39998;SDS011;25696;42.646;23.368;2023-07-24T08:02:02;14.50;;;9.25;;
39998;SDS011;25696;42.646;23.368;2023-07-24T08:04:28;14.52;;;8.90;;
39998;SDS011;25696;42.646;23.368;2023-07-24T08:06:53;15.20;;;9.40;;
39998;SDS011;25696;42.646;23.368;2023-07-24T08:09:18;14.95;;;10.27;;
39998;SDS011;25696;42.646;23.368;2023-07-24T08:11:46;17.38;;;10.07;;
39998;SDS011;25696;42.646;23.368;2023-07-24T08:14:14;14.10;;;9.60;;
39998;SDS011;25696;42.646;23.368;2023-07-24T08:16:39;16.42;;;9.80;;
39998;SDS011;25696;42.646;23.368;2023-07-24T08:19:04;18.85;;;9.80;;
39998;SDS011;25696;42.646;23.368;2023-07-24T08:21:30;19.15;;;10.07;;
39998;SDS011;25696;42.646;23.368;2023-07-24T08:23:55;15.95;;;9.48;;
39998;SDS011;25696;42.646;23.368;2023-07-24T08:26:22;14.70;;;10.07;;
39998;SDS011;25696;42.646;23.368;2023-07-24T08:28:49;15.07;;;9.55;;
39998;SDS011;25696;42.646;23.368;2023-07-24T08:31:15;23.70;;;10.18;;
39998;SDS011;25696;42.646;23.368;2023-07-24T08:33:40;16.83;;;9.73;;
39998;SDS011;25696;42.646;23.368;2023-07-24T08:36:06;16.02;;;9.90;;
39998;SDS011;25696;42.646;23.368;2023-07-24T08:38:33;16.33;;;10.32;;
39998;SDS011;25696;42.646;23.368;2023-07-24T08:41:07;16.75;;;11.45;;
39998;SDS011;25696;42.646;23.368;2023-07-24T08:43:36;17.77;;;10.27;;
39998;SDS011;25696;42.646;23.368;2023-07-24T08:46:03;19.38;;;10.50;;
39998;SDS011;25696;42.646;23.368;2023-07-24T08:48:40;15.02;;;10.55;;
39998;SDS011;25696;42.646;23.368;2023-07-24T08:51:13;23.35;;;11.63;;
39998;SDS011;25696;42.646;23.368;2023-07-24T08:53:41;18.10;;;10.30;;
39998;SDS011;25696;42.646;23.368;2023-07-24T08:56:08;17.88;;;10.20;;
39998;SDS011;25696;42.646;23.368;2023-07-24T08:58:35;20.83;;;10.90;;
39998;SDS011;25696;42.646;23.368;2023-07-24T09:01:02;15.45;;;10.00;;
39998;SDS011;25696;42.646;23.368;2023-07-24T09:03:28;19.85;;;10.90;;
39998;SDS011;25696;42.646;23.368;2023-07-24T09:05:55;25.05;;;13.00;;
39998;SDS011;25696;42.646;23.368;2023-07-24T09:08:33;26.83;;;14.57;;
39998;SDS011;25696;42.646;23.368;2023-07-24T09:11:00;19.73;;;10.68;;
39998;SDS011;25696;42.646;23.368;2023-07-24T09:13:27;26.52;;;11.40;;
39998;SDS011;25696;42.646;23.368;2023-07-24T09:15:53;20.70;;;11.98;;
39998;SDS011;25696;42.646;23.368;2023-07-24T09:18:19;25.02;;;12.20;;
39998;SDS011;25696;42.646;23.368;2023-07-24T09:20:45;21.02;;;11.70;;
39998;SDS011;25696;42.646;23.368;2023-07-24T09:23:11;19.55;;;11.10;;
39998;SDS011;25696;42.646;23.368;2023-07-24T09:25:39;19.42;;;11.73;;
39998;SDS011;25696;42.646;23.368;2023-07-24T09:28:09;21.80;;;11.40;;
39998;SDS011;25696;42.646;23.368;2023-07-24T09:30:39;16.92;;;11.35;;
39998;SDS011;25696;42.646;23.368;2023-07-24T09:33:05;18.05;;;11.00;;
39998;SDS011;25696;42.646;23.368;2023-07-24T09:35:31;18.50;;;12.10;;
39998;SDS011;25696;42.646;23.368;2023-07-24T09:38:07;16.98;;;10.95;;
39998;SDS011;25696;42.646;23.368;2023-07-24T09:40:43;24.90;;;11.38;;
39998;SDS011;25696;42.646;23.368;2023-07-24T09:43:23;24.77;;;13.18;;
39998;SDS011;25696;42.646;23.368;2023-07-24T09:45:53;25.33;;;11.57;;
39998;SDS011;25696;42.646;23.368;2023-07-24T09:48:19;19.38;;;12.52;;
39998;SDS011;25696;42.646;23.368;2023-07-24T09:50:48;16.98;;;10.90;;
39998;SDS011;25696;42.646;23.368;2023-07-24T09:55:50;16.70;;;10.73;;
39998;SDS011;25696;42.646;23.368;2023-07-24T09:58:21;24.52;;;12.27;;
39998;SDS011;25696;42.646;23.368;2023-07-24T10:00:47;27.95;;;15.98;;
39998;SDS011;25696;42.646;23.368;2023-07-24T10:03:14;23.23;;;11.80;;
39998;SDS011;25696;42.646;23.368;2023-07-24T10:05:41;21.85;;;10.73;;
39998;SDS011;25696;42.646;23.368;2023-07-24T10:08:08;28.67;;;13.20;;
39998;SDS011;25696;42.646;23.368;2023-07-24T10:10:36;20.63;;;11.55;;
39998;SDS011;25696;42.646;23.368;2023-07-24T10:13:03;35.25;;;11.73;;
39998;SDS011;25696;42.646;23.368;2023-07-24T10:15:29;23.77;;;11.43;;
39998;SDS011;25696;42.646;23.368;2023-07-24T10:18:01;20.33;;;11.50;;
39998;SDS011;25696;42.646;23.368;2023-07-24T10:20:32;21.52;;;11.65;;
39998;SDS011;25696;42.646;23.368;2023-07-24T10:23:00;16.70;;;10.23;;
39998;SDS011;25696;42.646;23.368;2023-07-24T10:25:30;18.02;;;9.50;;
39998;SDS011;25696;42.646;23.368;2023-07-24T10:30:38;20.63;;;10.02;;
39998;SDS011;25696;42.646;23.368;2023-07-24T10:35:37;22.38;;;11.07;;
39998;SDS011;25696;42.646;23.368;2023-07-24T10:38:03;22.70;;;11.30;;
39998;SDS011;25696;42.646;23.368;2023-07-24T10:40:29;19.55;;;10.90;;
39998;SDS011;25696;42.646;23.368;2023-07-24T10:43:05;23.30;;;11.25;;
39998;SDS011;25696;42.646;23.368;2023-07-24T10:46:08;22.23;;;11.05;;
39998;SDS011;25696;42.646;23.368;2023-07-24T10:48:27;22.77;;;11.32;;
39998;SDS011;25696;42.646;23.368;2023-07-24T10:50:52;24.25;;;11.32;;
39998;SDS011;25696;42.646;23.368;2023-07-24T10:53:19;21.60;;;10.68;;
39998;SDS011;25696;42.646;23.368;2023-07-24T10:55:45;20.70;;;8.30;;
39998;SDS011;25696;42.646;23.368;2023-07-24T10:58:15;19.52;;;8.35;;
39998;SDS011;25696;42.646;23.368;2023-07-24T11:00:44;26.20;;;9.60;;
39998;SDS011;25696;42.646;23.368;2023-07-24T11:03:11;26.33;;;9.65;;
39998;SDS011;25696;42.646;23.368;2023-07-24T11:05:41;22.45;;;8.27;;
39998;SDS011;25696;42.646;23.368;2023-07-24T11:08:15;22.17;;;8.05;;
39998;SDS011;25696;42.646;23.368;2023-07-24T11:10:46;19.40;;;6.85;;
39998;SDS011;25696;42.646;23.368;2023-07-24T11:13:19;16.70;;;8.20;;
39998;SDS011;25696;42.646;23.368;2023-07-24T11:15:47;15.98;;;7.82;;
39998;SDS011;25696;42.646;23.368;2023-07-24T11:18:13;17.15;;;8.13;;
39998;SDS011;25696;42.646;23.368;2023-07-24T11:20:48;24.23;;;10.07;;
39998;SDS011;25696;42.646;23.368;2023-07-24T11:23:17;23.85;;;7.40;;
39998;SDS011;25696;42.646;23.368;2023-07-24T11:25:43;21.63;;;7.63;;
39998;SDS011;25696;42.646;23.368;2023-07-24T11:28:10;18.60;;;7.72;;
39998;SDS011;25696;42.646;23.368;2023-07-24T11:30:36;18.33;;;7.70;;
39998;SDS011;25696;42.646;23.368;2023-07-24T11:33:02;25.70;;;8.60;;
39998;SDS011;25696;42.646;23.368;2023-07-24T11:35:31;15.27;;;7.85;;
39998;SDS011;25696;42.646;23.368;2023-07-24T11:37:58;17.60;;;7.78;;
39998;SDS011;25696;42.646;23.368;2023-07-24T11:40:30;16.52;;;7.72;;
39998;SDS011;25696;42.646;23.368;2023-07-24T11:42:57;15.38;;;8.13;;
39998;SDS011;25696;42.646;23.368;2023-07-24T11:45:23;17.52;;;7.95;;
39998;SDS011;25696;42.646;23.368;2023-07-24T11:47:49;19.55;;;8.18;;
39998;SDS011;25696;42.646;23.368;2023-07-24T11:50:15;17.55;;;7.93;;
39998;SDS011;25696;42.646;23.368;2023-07-24T11:52:42;16.40;;;8.10;;
39998;SDS011;25696;42.646;23.368;2023-07-24T11:55:10;21.27;;;8.18;;
39998;SDS011;25696;42.646;23.368;2023-07-24T11:57:39;14.32;;;7.80;;
39998;SDS011;25696;42.646;23.368;2023-07-24T12:00:05;17.40;;;7.78;;
39998;SDS011;25696;42.646;23.368;2023-07-24T12:02:42;18.60;;;8.35;;
39998;SDS011;25696;42.646;23.368;2023-07-24T12:05:09;13.70;;;7.78;;
39998;SDS011;25696;42.646;23.368;2023-07-24T12:07:35;17.85;;;8.13;;
39998;SDS011;25696;42.646;23.368;2023-07-24T12:10:01;21.20;;;7.88;;
39998;SDS011;25696;42.646;23.368;2023-07-24T12:12:45;17.50;;;8.05;;
39998;SDS011;25696;42.646;23.368;2023-07-24T12:15:12;18.60;;;8.02;;
39998;SDS011;25696;42.646;23.368;2023-07-24T12:17:39;17.85;;;7.80;;
39998;SDS011;25696;42.646;23.368;2023-07-24T12:20:05;11.70;;;7.90;;
39998;SDS011;25696;42.646;23.368;2023-07-24T12:22:33;15.75;;;8.13;;
39998;SDS011;25696;42.646;23.368;2023-07-24T12:24:59;17.42;;;7.78;;
39998;SDS011;25696;42.646;23.368;2023-07-24T12:27:25;19.75;;;8.52;;
39998;SDS011;25696;42.646;23.368;2023-07-24T12:29:51;15.23;;;8.25;;
39998;SDS011;25696;42.646;23.368;2023-07-24T12:32:17;17.83;;;7.57;;
39998;SDS011;25696;42.646;23.368;2023-07-24T12:34:43;16.60;;;8.18;;
39998;SDS011;25696;42.646;23.368;2023-07-24T12:37:09;18.70;;;8.70;;
39998;SDS011;25696;42.646;23.368;2023-07-24T12:39:34;20.13;;;8.75;;
39998;SDS011;25696;42.646;23.368;2023-07-24T12:42:00;16.08;;;8.07;;
39998;SDS011;25696;42.646;23.368;2023-07-24T12:44:25;16.17;;;8.48;;
39998;SDS011;25696;42.646;23.368;2023-07-24T12:46:51;13.82;;;7.78;;
39998;SDS011;25696;42.646;23.368;2023-07-24T12:49:16;14.00;;;7.78;;
39998;SDS011;25696;42.646;23.368;2023-07-24T12:51:42;17.42;;;8.00;;
39998;SDS011;25696;42.646;23.368;2023-07-24T12:54:07;18.55;;;8.77;;
39998;SDS011;25696;42.646;23.368;2023-07-24T12:56:33;18.15;;;7.90;;
39998;SDS011;25696;42.646;23.368;2023-07-24T12:58:58;18.38;;;8.13;;
39998;SDS011;25696;42.646;23.368;2023-07-24T13:01:23;15.35;;;8.23;;
39998;SDS011;25696;42.646;23.368;2023-07-24T13:03:49;21.67;;;8.75;;
39998;SDS011;25696;42.646;23.368;2023-07-24T13:06:15;17.17;;;8.30;;
39998;SDS011;25696;42.646;23.368;2023-07-24T13:08:40;19.52;;;8.48;;
39998;SDS011;25696;42.646;23.368;2023-07-24T13:11:05;24.00;;;8.32;;
39998;SDS011;25696;42.646;23.368;2023-07-24T13:13:31;18.73;;;8.13;;
39998;SDS011;25696;42.646;23.368;2023-07-24T13:15:56;20.25;;;8.88;;
39998;SDS011;25696;42.646;23.368;2023-07-24T13:18:22;18.02;;;9.57;;
39998;SDS011;25696;42.646;23.368;2023-07-24T13:20:47;16.95;;;8.52;;
39998;SDS011;25696;42.646;23.368;2023-07-24T13:23:12;24.05;;;8.85;;
39998;SDS011;25696;42.646;23.368;2023-07-24T13:25:38;18.88;;;9.18;;
39998;SDS011;25696;42.646;23.368;2023-07-24T13:28:03;14.75;;;8.35;;
39998;SDS011;25696;42.646;23.368;2023-07-24T13:30:29;18.73;;;9.27;;
39998;SDS011;25696;42.646;23.368;2023-07-24T13:32:54;12.95;;;7.57;;
39998;SDS011;25696;42.646;23.368;2023-07-24T13:35:19;16.23;;;8.40;;
39998;SDS011;25696;42.646;23.368;2023-07-24T13:37:45;18.15;;;8.57;;
39998;SDS011;25696;42.646;23.368;2023-07-24T13:40:10;25.08;;;9.38;;
39998;SDS011;25696;42.646;23.368;2023-07-24T13:42:36;16.25;;;8.60;;
39998;SDS011;25696;42.646;23.368;2023-07-24T13:45:02;15.40;;;8.75;;
39998;SDS011;25696;42.646;23.368;2023-07-24T13:47:27;17.95;;;9.35;;
39998;SDS011;25696;42.646;23.368;2023-07-24T13:49:53;18.38;;;11.00;;
39998;SDS011;25696;42.646;23.368;2023-07-24T13:52:18;20.42;;;8.68;;
39998;SDS011;25696;42.646;23.368;2023-07-24T13:54:44;16.10;;;8.57;;
39998;SDS011;25696;42.646;23.368;2023-07-24T13:57:09;18.60;;;9.18;;
39998;SDS011;25696;42.646;23.368;2023-07-24T13:59:35;20.77;;;8.95;;
39998;SDS011;25696;42.646;23.368;2023-07-24T14:02:03;16.75;;;8.55;;
39998;SDS011;25696;42.646;23.368;2023-07-24T14:04:28;21.25;;;8.85;;
39998;SDS011;25696;42.646;23.368;2023-07-24T14:06:54;17.02;;;8.75;;
39998;SDS011;25696;42.646;23.368;2023-07-24T14:09:19;26.05;;;9.65;;
39998;SDS011;25696;42.646;23.368;2023-07-24T14:11:45;23.23;;;11.98;;
39998;SDS011;25696;42.646;23.368;2023-07-24T14:14:10;14.43;;;8.98;;
39998;SDS011;25696;42.646;23.368;2023-07-24T14:16:36;17.85;;;9.55;;
39998;SDS011;25696;42.646;23.368;2023-07-24T14:19:01;14.80;;;8.75;;
39998;SDS011;25696;42.646;23.368;2023-07-24T14:21:27;14.50;;;9.18;;
39998;SDS011;25696;42.646;23.368;2023-07-24T14:23:52;18.00;;;9.43;;
39998;SDS011;25696;42.646;23.368;2023-07-24T14:26:18;22.08;;;9.60;;
39998;SDS011;25696;42.646;23.368;2023-07-24T14:28:43;17.40;;;9.95;;
39998;SDS011;25696;42.646;23.368;2023-07-24T14:31:08;16.90;;;9.43;;
39998;SDS011;25696;42.646;23.368;2023-07-24T14:33:34;19.20;;;10.10;;
39998;SDS011;25696;42.646;23.368;2023-07-24T14:35:59;12.63;;;8.52;;
39998;SDS011;25696;42.646;23.368;2023-07-24T14:38:25;17.27;;;9.55;;
39998;SDS011;25696;42.646;23.368;2023-07-24T14:40:50;15.93;;;9.68;;
39998;SDS011;25696;42.646;23.368;2023-07-24T14:43:15;23.20;;;10.38;;
39998;SDS011;25696;42.646;23.368;2023-07-24T14:45:41;21.58;;;10.10;;
39998;SDS011;25696;42.646;23.368;2023-07-24T14:48:06;20.42;;;9.77;;
39998;SDS011;25696;42.646;23.368;2023-07-24T14:50:35;14.60;;;8.98;;
39998;SDS011;25696;42.646;23.368;2023-07-24T14:53:00;15.15;;;10.00;;
39998;SDS011;25696;42.646;23.368;2023-07-24T14:55:26;20.88;;;9.80;;
39998;SDS011;25696;42.646;23.368;2023-07-24T14:57:51;16.15;;;9.00;;
39998;SDS011;25696;42.646;23.368;2023-07-24T15:00:16;15.40;;;9.10;;
39998;SDS011;25696;42.646;23.368;2023-07-24T15:02:42;17.27;;;9.60;;
39998;SDS011;25696;42.646;23.368;2023-07-24T15:05:07;13.90;;;9.75;;
39998;SDS011;25696;42.646;23.368;2023-07-24T15:07:33;13.27;;;9.18;;
39998;SDS011;25696;42.646;23.368;2023-07-24T15:09:58;20.58;;;9.75;;
39998;SDS011;25696;42.646;23.368;2023-07-24T15:12:24;18.40;;;9.52;;
39998;SDS011;25696;42.646;23.368;2023-07-24T15:14:50;14.48;;;9.43;;
39998;SDS011;25696;42.646;23.368;2023-07-24T15:17:15;16.80;;;9.68;;
39998;SDS011;25696;42.646;23.368;2023-07-24T15:19:43;19.13;;;11.50;;
39998;SDS011;25696;42.646;23.368;2023-07-24T15:22:08;24.45;;;13.05;;
39998;SDS011;25696;42.646;23.368;2023-07-24T15:24:34;18.58;;;10.85;;
39998;SDS011;25696;42.646;23.368;2023-07-24T15:26:59;16.50;;;9.88;;
39998;SDS011;25696;42.646;23.368;2023-07-24T15:29:27;20.50;;;10.43;;
39998;SDS011;25696;42.646;23.368;2023-07-24T15:31:52;20.08;;;10.13;;
39998;SDS011;25696;42.646;23.368;2023-07-24T15:34:17;17.55;;;10.05;;
39998;SDS011;25696;42.646;23.368;2023-07-24T15:36:43;15.65;;;10.38;;
39998;SDS011;25696;42.646;23.368;2023-07-24T15:39:08;17.88;;;9.93;;
39998;SDS011;25696;42.646;23.368;2023-07-24T15:41:34;17.55;;;9.95;;
39998;SDS011;25696;42.646;23.368;2023-07-24T15:43:59;18.88;;;10.00;;
39998;SDS011;25696;42.646;23.368;2023-07-24T15:46:25;15.57;;;10.27;;
39998;SDS011;25696;42.646;23.368;2023-07-24T15:48:53;18.75;;;11.35;;
39998;SDS011;25696;42.646;23.368;2023-07-24T15:51:19;18.10;;;10.18;;
39998;SDS011;25696;42.646;23.368;2023-07-24T15:53:44;16.60;;;10.20;;
39998;SDS011;25696;42.646;23.368;2023-07-24T15:56:10;16.42;;;10.20;;
39998;SDS011;25696;42.646;23.368;2023-07-24T15:58:37;19.38;;;10.40;;
39998;SDS011;25696;42.646;23.368;2023-07-24T16:01:02;19.10;;;9.60;;
39998;SDS011;25696;42.646;23.368;2023-07-24T16:03:27;16.20;;;9.43;;
39998;SDS011;25696;42.646;23.368;2023-07-24T16:05:53;16.77;;;9.65;;
39998;SDS011;25696;42.646;23.368;2023-07-24T16:08:19;16.35;;;10.07;;
39998;SDS011;25696;42.646;23.368;2023-07-24T16:10:45;20.60;;;11.15;;
39998;SDS011;25696;42.646;23.368;2023-07-24T16:13:10;17.67;;;9.63;;
39998;SDS011;25696;42.646;23.368;2023-07-24T16:15:36;19.27;;;10.20;;
39998;SDS011;25696;42.646;23.368;2023-07-24T16:18:01;14.70;;;9.57;;
39998;SDS011;25696;42.646;23.368;2023-07-24T16:20:27;16.08;;;9.85;;
39998;SDS011;25696;42.646;23.368;2023-07-24T16:22:52;19.80;;;10.07;;
39998;SDS011;25696;42.646;23.368;2023-07-24T16:25:18;17.75;;;11.32;;
39998;SDS011;25696;42.646;23.368;2023-07-24T16:27:43;16.58;;;10.57;;
39998;SDS011;25696;42.646;23.368;2023-07-24T16:30:08;18.88;;;10.00;;
39998;SDS011;25696;42.646;23.368;2023-07-24T16:32:34;17.38;;;9.75;;
39998;SDS011;25696;42.646;23.368;2023-07-24T16:35:00;18.92;;;10.30;;
39998;SDS011;25696;42.646;23.368;2023-07-24T16:37:25;17.27;;;10.25;;
39998;SDS011;25696;42.646;23.368;2023-07-24T16:39:53;18.75;;;10.88;;
39998;SDS011;25696;42.646;23.368;2023-07-24T16:42:19;23.30;;;11.48;;
39998;SDS011;25696;42.646;23.368;2023-07-24T16:44:44;20.15;;;10.82;;
39998;SDS011;25696;42.646;23.368;2023-07-24T16:47:10;20.63;;;10.50;;
39998;SDS011;25696;42.646;23.368;2023-07-24T16:49:35;19.80;;;10.82;;
39998;SDS011;25696;42.646;23.368;2023-07-24T16:52:00;18.90;;;10.77;;
39998;SDS011;25696;42.646;23.368;2023-07-24T16:54:28;22.60;;;10.60;;
39998;SDS011;25696;42.646;23.368;2023-07-24T16:56:54;21.35;;;10.40;;
39998;SDS011;25696;42.646;23.368;2023-07-24T16:59:19;22.77;;;11.10;;
39998;SDS011;25696;42.646;23.368;2023-07-24T17:01:46;18.02;;;10.48;;
39998;SDS011;25696;42.646;23.368;2023-07-24T17:04:12;17.92;;;10.70;;
39998;SDS011;25696;42.646;23.368;2023-07-24T17:06:37;18.10;;;11.15;;
39998;SDS011;25696;42.646;23.368;2023-07-24T17:09:03;22.85;;;13.23;;
39998;SDS011;25696;42.646;23.368;2023-07-24T17:11:28;23.20;;;11.60;;
39998;SDS011;25696;42.646;23.368;2023-07-24T17:13:54;17.13;;;11.02;;
39998;SDS011;25696;42.646;23.368;2023-07-24T17:16:19;16.85;;;10.80;;
39998;SDS011;25696;42.646;23.368;2023-07-24T17:18:45;20.83;;;11.07;;
39998;SDS011;25696;42.646;23.368;2023-07-24T17:21:10;22.13;;;11.75;;
39998;SDS011;25696;42.646;23.368;2023-07-24T17:23:36;20.08;;;11.13;;
39998;SDS011;25696;42.646;23.368;2023-07-24T17:26:01;28.05;;;18.58;;
39998;SDS011;25696;42.646;23.368;2023-07-24T17:28:27;22.80;;;11.88;;
39998;SDS011;25696;42.646;23.368;2023-07-24T17:30:52;20.48;;;10.77;;
39998;SDS011;25696;42.646;23.368;2023-07-24T17:33:18;20.35;;;11.48;;
39998;SDS011;25696;42.646;23.368;2023-07-24T17:35:43;20.52;;;12.70;;
39998;SDS011;25696;42.646;23.368;2023-07-24T17:38:08;24.02;;;11.60;;
39998;SDS011;25696;42.646;23.368;2023-07-24T17:40:34;21.80;;;11.75;;
39998;SDS011;25696;42.646;23.368;2023-07-24T17:43:02;21.90;;;12.38;;
39998;SDS011;25696;42.646;23.368;2023-07-24T17:45:28;21.58;;;11.70;;
39998;SDS011;25696;42.646;23.368;2023-07-24T17:47:53;28.00;;;12.45;;
39998;SDS011;25696;42.646;23.368;2023-07-24T17:50:19;26.92;;;12.98;;
39998;SDS011;25696;42.646;23.368;2023-07-24T17:52:45;32.40;;;12.07;;
39998;SDS011;25696;42.646;23.368;2023-07-24T17:55:10;31.13;;;13.00;;
39998;SDS011;25696;42.646;23.368;2023-07-24T17:57:36;22.90;;;12.80;;
39998;SDS011;25696;42.646;23.368;2023-07-24T18:00:02;29.80;;;13.52;;
39998;SDS011;25696;42.646;23.368;2023-07-24T18:02:29;32.53;;;15.05;;
39998;SDS011;25696;42.646;23.368;2023-07-24T18:04:54;30.35;;;15.45;;
39998;SDS011;25696;42.646;23.368;2023-07-24T18:07:19;28.55;;;14.45;;
39998;SDS011;25696;42.646;23.368;2023-07-24T18:09:45;27.17;;;14.43;;
39998;SDS011;25696;42.646;23.368;2023-07-24T18:12:10;51.80;;;23.88;;
39998;SDS011;25696;42.646;23.368;2023-07-24T18:14:36;35.92;;;15.60;;
39998;SDS011;25696;42.646;23.368;2023-07-24T18:17:01;41.88;;;20.83;;
39998;SDS011;25696;42.646;23.368;2023-07-24T18:19:27;55.85;;;23.85;;
39998;SDS011;25696;42.646;23.368;2023-07-24T18:21:53;104.50;;;55.05;;
39998;SDS011;25696;42.646;23.368;2023-07-24T18:24:18;59.80;;;31.70;;
39998;SDS011;25696;42.646;23.368;2023-07-24T18:26:45;23.98;;;12.60;;
39998;SDS011;25696;42.646;23.368;2023-07-24T18:29:11;36.60;;;18.45;;
39998;SDS011;25696;42.646;23.368;2023-07-24T18:31:37;44.97;;;18.65;;
39998;SDS011;25696;42.646;23.368;2023-07-24T18:34:03;28.73;;;13.80;;
39998;SDS011;25696;42.646;23.368;2023-07-24T18:36:28;32.03;;;16.83;;
39998;SDS011;25696;42.646;23.368;2023-07-24T18:38:53;27.13;;;13.13;;
39998;SDS011;25696;42.646;23.368;2023-07-24T18:41:19;30.23;;;15.45;;
39998;SDS011;25696;42.646;23.368;2023-07-24T18:43:44;22.30;;;13.27;;
39998;SDS011;25696;42.646;23.368;2023-07-24T18:46:09;29.15;;;14.68;;
39998;SDS011;25696;42.646;23.368;2023-07-24T18:48:35;39.97;;;23.98;;
39998;SDS011;25696;42.646;23.368;2023-07-24T18:51:01;29.20;;;16.27;;
39998;SDS011;25696;42.646;23.368;2023-07-24T18:53:27;27.35;;;15.25;;
39998;SDS011;25696;42.646;23.368;2023-07-24T18:55:54;39.47;;;25.00;;
39998;SDS011;25696;42.646;23.368;2023-07-24T18:58:20;30.73;;;15.57;;
39998;SDS011;25696;42.646;23.368;2023-07-24T19:00:45;28.88;;;15.55;;
39998;SDS011;25696;42.646;23.368;2023-07-24T19:03:11;24.80;;;14.07;;
39998;SDS011;25696;42.646;23.368;2023-07-24T19:05:36;29.48;;;16.55;;
39998;SDS011;25696;42.646;23.368;2023-07-24T19:08:02;26.02;;;14.40;;
39998;SDS011;25696;42.646;23.368;2023-07-24T19:10:27;31.55;;;16.08;;
39998;SDS011;25696;42.646;23.368;2023-07-24T19:12:53;27.85;;;14.27;;
39998;SDS011;25696;42.646;23.368;2023-07-24T19:15:18;26.30;;;14.05;;
39998;SDS011;25696;42.646;23.368;2023-07-24T19:17:43;20.10;;;12.20;;
39998;SDS011;25696;42.646;23.368;2023-07-24T19:20:09;21.55;;;13.00;;
39998;SDS011;25696;42.646;23.368;2023-07-24T19:22:35;24.60;;;13.75;;
39998;SDS011;25696;42.646;23.368;2023-07-24T19:25:01;22.90;;;12.80;;
39998;SDS011;25696;42.646;23.368;2023-07-24T19:27:26;27.77;;;13.23;;
39998;SDS011;25696;42.646;23.368;2023-07-24T19:29:52;29.00;;;15.73;;
39998;SDS011;25696;42.646;23.368;2023-07-24T19:32:18;31.23;;;13.88;;
39998;SDS011;25696;42.646;23.368;2023-07-24T19:34:43;32.45;;;16.15;;
39998;SDS011;25696;42.646;23.368;2023-07-24T19:37:09;23.70;;;12.60;;
39998;SDS011;25696;42.646;23.368;2023-07-24T19:39:35;31.08;;;15.90;;
39998;SDS011;25696;42.646;23.368;2023-07-24T19:42:03;19.35;;;12.35;;
39998;SDS011;25696;42.646;23.368;2023-07-24T19:44:28;30.10;;;16.23;;
39998;SDS011;25696;42.646;23.368;2023-07-24T19:46:54;21.90;;;12.55;;
39998;SDS011;25696;42.646;23.368;2023-07-24T19:49:19;19.30;;;11.73;;
39998;SDS011;25696;42.646;23.368;2023-07-24T19:51:45;24.05;;;12.95;;
39998;SDS011;25696;42.646;23.368;2023-07-24T19:54:10;25.73;;;12.02;;
39998;SDS011;25696;42.646;23.368;2023-07-24T19:56:35;25.88;;;12.10;;
39998;SDS011;25696;42.646;23.368;2023-07-24T19:59:01;23.08;;;12.52;;
39998;SDS011;25696;42.646;23.368;2023-07-24T20:01:26;20.50;;;11.80;;
39998;SDS011;25696;42.646;23.368;2023-07-24T20:03:52;24.23;;;12.25;;
39998;SDS011;25696;42.646;23.368;2023-07-24T20:06:17;23.52;;;11.50;;
39998;SDS011;25696;42.646;23.368;2023-07-24T20:08:43;20.95;;;11.27;;
39998;SDS011;25696;42.646;23.368;2023-07-24T20:11:08;25.35;;;11.55;;
39998;SDS011;25696;42.646;23.368;2023-07-24T20:13:34;20.33;;;10.93;;
39998;SDS011;25696;42.646;23.368;2023-07-24T20:16:00;22.20;;;11.63;;
39998;SDS011;25696;42.646;23.368;2023-07-24T20:18:26;21.33;;;11.05;;
39998;SDS011;25696;42.646;23.368;2023-07-24T20:20:51;23.58;;;11.00;;
39998;SDS011;25696;42.646;23.368;2023-07-24T20:23:17;24.20;;;11.43;;
39998;SDS011;25696;42.646;23.368;2023-07-24T20:25:45;15.85;;;10.15;;
39998;SDS011;25696;42.646;23.368;2023-07-24T20:28:11;22.73;;;11.40;;
39998;SDS011;25696;42.646;23.368;2023-07-24T20:30:37;21.02;;;9.93;;
39998;SDS011;25696;42.646;23.368;2023-07-24T20:33:03;17.77;;;10.85;;
39998;SDS011;25696;42.646;23.368;2023-07-24T20:35:29;21.02;;;10.60;;
39998;SDS011;25696;42.646;23.368;2023-07-24T20:37:56;23.27;;;11.23;;
39998;SDS011;25696;42.646;23.368;2023-07-24T20:40:22;27.60;;;12.88;;
39998;SDS011;25696;42.646;23.368;2023-07-24T20:42:47;25.60;;;11.70;;
39998;SDS011;25696;42.646;23.368;2023-07-24T20:45:13;18.80;;;10.98;;
39998;SDS011;25696;42.646;23.368;2023-07-24T20:47:38;21.25;;;12.02;;
39998;SDS011;25696;42.646;23.368;2023-07-24T20:50:04;19.17;;;11.45;;
39998;SDS011;25696;42.646;23.368;2023-07-24T20:52:29;22.55;;;12.57;;
39998;SDS011;25696;42.646;23.368;2023-07-24T20:54:55;21.55;;;11.52;;
39998;SDS011;25696;42.646;23.368;2023-07-24T20:57:20;25.60;;;11.38;;
39998;SDS011;25696;42.646;23.368;2023-07-24T20:59:46;20.48;;;10.25;;
39998;SDS011;25696;42.646;23.368;2023-07-24T21:02:11;23.80;;;10.68;;
39998;SDS011;25696;42.646;23.368;2023-07-24T21:04:38;22.83;;;9.98;;
39998;SDS011;25696;42.646;23.368;2023-07-24T21:07:04;16.02;;;9.88;;
39998;SDS011;25696;42.646;23.368;2023-07-24T21:09:29;19.05;;;9.55;;
39998;SDS011;25696;42.646;23.368;2023-07-24T21:11:54;20.23;;;9.93;;
39998;SDS011;25696;42.646;23.368;2023-07-24T21:14:21;18.95;;;10.60;;
39998;SDS011;25696;42.646;23.368;2023-07-24T21:16:47;21.23;;;10.43;;
39998;SDS011;25696;42.646;23.368;2023-07-24T21:19:12;25.20;;;10.70;;
39998;SDS011;25696;42.646;23.368;2023-07-24T21:21:38;21.58;;;11.25;;
39998;SDS011;25696;42.646;23.368;2023-07-24T21:24:03;24.05;;;10.63;;
39998;SDS011;25696;42.646;23.368;2023-07-24T21:26:29;18.70;;;10.50;;
39998;SDS011;25696;42.646;23.368;2023-07-24T21:28:54;20.90;;;10.45;;
39998;SDS011;25696;42.646;23.368;2023-07-24T21:31:21;17.95;;;10.15;;
39998;SDS011;25696;42.646;23.368;2023-07-24T21:33:46;21.23;;;11.05;;
39998;SDS011;25696;42.646;23.368;2023-07-24T21:36:11;23.52;;;11.02;;
39998;SDS011;25696;42.646;23.368;2023-07-24T21:38:37;20.90;;;11.00;;
39998;SDS011;25696;42.646;23.368;2023-07-24T21:41:04;25.95;;;11.40;;
39998;SDS011;25696;42.646;23.368;2023-07-24T21:43:29;25.65;;;10.85;;
39998;SDS011;25696;42.646;23.368;2023-07-24T21:45:55;19.08;;;11.02;;
39998;SDS011;25696;42.646;23.368;2023-07-24T21:48:20;18.98;;;10.93;;
39998;SDS011;25696;42.646;23.368;2023-07-24T21:50:46;20.85;;;10.80;;
39998;SDS011;25696;42.646;23.368;2023-07-24T21:53:13;20.55;;;10.65;;
39998;SDS011;25696;42.646;23.368;2023-07-24T21:55:39;17.20;;;10.07;;
39998;SDS011;25696;42.646;23.368;2023-07-24T21:58:05;17.45;;;10.55;;